Time;durP1;ratioP1;P1;durP2;ratioP2;P2;SDS_P1;SDS_P2;PMS_P1;PMS_P2;Temp;Humidity;BMP_temperature;BMP_pressure;BME280_temperature;BME280_humidity;BME280_pressure;Samples;Min_cycle;Max_cycle;Signal;HPM_P1;HPM_P2
2021/09/02 00:02:12;;;;;;;;;;;20.80;72.70;;;;;;4985900;28;1232;-77
2021/09/02 00:04:37;;;;;;;;;;;20.80;72.70;;;;;;4966663;28;1380;-76
2021/09/02 00:07:03;;;;;;;;;;;20.70;72.70;;;;;;4968563;28;1272;-75
2021/09/02 00:09:28;;;;;;;;;;;20.80;72.70;;;;;;4986430;28;1205;-75
2021/09/02 00:11:54;;;;;;;;;;;20.80;72.70;;;;;;4988317;28;1165;-76
2021/09/02 00:14:19;;;;;;;;;;;20.80;72.70;;;;;;4967766;28;1221;-76
2021/09/02 00:16:44;;;;;;;;;;;20.80;72.70;;;;;;4981694;28;1121;-77
2021/09/02 00:19:10;;;;;;;;;;;20.70;72.70;;;;;;4985058;28;1910;-76
2021/09/02 00:21:35;;;;;;;;;;;20.70;72.70;;;;;;4970672;28;1138;-76
2021/09/02 00:24:01;;;;;;;;;;;20.70;72.70;;;;;;4984639;28;1251;-76
2021/09/02 00:26:26;;;;;;;;;;;20.70;72.70;;;;;;5004810;28;1117;-77
2021/09/02 00:28:51;;;;;;;;;;;20.70;72.70;;;;;;4967053;28;1101;-76
2021/09/02 00:31:17;;;;;;;;;;;20.70;72.60;;;;;;4988001;28;1066;-76
2021/09/02 00:33:42;;;;;;;;;;;20.70;72.60;;;;;;4984601;28;1247;-77
2021/09/02 00:36:08;;;;;;;;;;;20.70;72.60;;;;;;4981158;28;1103;-77
2021/09/02 00:38:33;;;;;;;;;;;20.70;72.60;;;;;;4967382;28;1331;-77
2021/09/02 00:40:59;;;;;;;;;;;20.70;72.60;;;;;;4970237;28;1911;-76
2021/09/02 00:43:26;;;;;;;;;;;20.70;72.60;;;;;;4983558;28;1238;-76
2021/09/02 00:45:51;;;;;;;;;;;20.70;72.70;;;;;;4963866;28;1129;-76
2021/09/02 00:48:17;;;;;;;;;;;20.70;72.60;;;;;;4967564;28;1437;-76
2021/09/02 00:50:42;;;;;;;;;;;20.80;72.70;;;;;;5004156;28;1243;-77
2021/09/02 00:53:08;;;;;;;;;;;20.70;72.60;;;;;;4976504;28;1344;-76
2021/09/02 00:55:33;;;;;;;;;;;20.70;72.70;;;;;;4991974;28;1140;-77
2021/09/02 00:57:59;;;;;;;;;;;20.70;72.70;;;;;;4984258;28;1081;-76
2021/09/02 01:00:24;;;;;;;;;;;20.70;72.60;;;;;;4987337;28;1910;-77
2021/09/02 01:02:50;;;;;;;;;;;20.70;72.60;;;;;;4984401;28;1302;-76
2021/09/02 01:05:17;;;;;;;;;;;20.70;72.60;;;;;;4977346;28;1134;-75
2021/09/02 01:07:42;;;;;;;;;;;20.70;72.60;;;;;;4967063;28;1144;-75
2021/09/02 01:10:08;;;;;;;;;;;20.70;72.70;;;;;;4963383;28;1350;-74
2021/09/02 01:12:35;;;;;;;;;;;20.70;72.60;;;;;;4977828;28;1270;-78
2021/09/02 01:15:02;;;;;;;;;;;20.70;72.60;;;;;;4979274;28;1113;-78
2021/09/02 01:17:27;;;;;;;;;;;20.70;72.60;;;;;;4990110;28;1116;-75
2021/09/02 01:19:53;;;;;;;;;;;20.70;72.60;;;;;;4976112;28;1902;-75
2021/09/02 01:22:19;;;;;;;;;;;20.70;72.60;;;;;;4976477;28;1313;-75
2021/09/02 01:24:45;;;;;;;;;;;20.70;73.40;;;;;;4959783;28;1190;-74
2021/09/02 01:27:10;;;;;;;;;;;20.70;72.60;;;;;;5002972;28;1417;-74
2021/09/02 01:29:35;;;;;;;;;;;20.70;72.60;;;;;;4980627;28;1136;-75
2021/09/02 01:32:01;;;;;;;;;;;20.70;72.60;;;;;;4983645;28;1122;-75
2021/09/02 01:34:26;;;;;;;;;;;20.70;72.60;;;;;;4973549;28;1413;-74
2021/09/02 01:36:52;;;;;;;;;;;20.70;72.60;;;;;;4983962;28;1085;-75
2021/09/02 01:39:18;;;;;;;;;;;20.70;72.60;;;;;;4990187;28;1907;-75
2021/09/02 01:41:43;;;;;;;;;;;20.70;72.60;;;;;;4983475;28;1061;-75
2021/09/02 01:44:09;;;;;;;;;;;20.70;72.60;;;;;;4959966;28;1359;-76
2021/09/02 01:46:34;;;;;;;;;;;20.70;72.60;;;;;;4973974;28;1061;-76
2021/09/02 01:48:59;;;;;;;;;;;20.70;72.60;;;;;;4989301;28;1140;-75
2021/09/02 01:51:25;;;;;;;;;;;20.70;72.60;;;;;;4976038;28;1380;-76
2021/09/02 01:53:50;;;;;;;;;;;20.70;72.60;;;;;;4975775;28;1393;-76
2021/09/02 01:56:16;;;;;;;;;;;20.70;72.60;;;;;;4965200;28;1129;-76
2021/09/02 01:58:41;;;;;;;;;;;20.70;72.50;;;;;;4963322;28;1388;-75
2021/09/02 02:01:07;;;;;;;;;;;20.70;72.60;;;;;;4967621;28;1903;-76
2021/09/02 02:03:32;;;;;;;;;;;20.70;72.60;;;;;;4975244;28;1296;-75
2021/09/02 02:05:57;;;;;;;;;;;20.70;72.50;;;;;;4993268;28;1097;-76
2021/09/02 02:08:23;;;;;;;;;;;20.70;72.50;;;;;;4993465;28;1402;-78
2021/09/02 02:10:48;;;;;;;;;;;20.70;72.60;;;;;;4970542;28;1113;-76
2021/09/02 02:13:14;;;;;;;;;;;20.70;72.50;;;;;;4956125;28;1400;-75
2021/09/02 02:15:39;;;;;;;;;;;20.70;72.50;;;;;;4973575;28;1058;-76
2021/09/02 02:18:05;;;;;;;;;;;20.70;72.50;;;;;;4973756;28;1280;-77
2021/09/02 02:20:30;;;;;;;;;;;20.70;72.60;;;;;;4956305;28;1923;-75
2021/09/02 02:22:55;;;;;;;;;;;20.70;72.50;;;;;;4974097;28;1940;-77
2021/09/02 02:25:21;;;;;;;;;;;20.70;72.50;;;;;;4986244;28;1294;-76
2021/09/02 02:27:46;;;;;;;;;;;20.70;72.60;;;;;;5002398;28;1173;-77
2021/09/02 02:30:14;;;;;;;;;;;20.70;72.60;;;;;;4996945;28;1414;-77
2021/09/02 02:32:39;;;;;;;;;;;20.70;72.50;;;;;;4984837;28;1275;-78
2021/09/02 02:35:05;;;;;;;;;;;20.70;72.60;;;;;;4961226;28;1160;-78
2021/09/02 02:37:30;;;;;;;;;;;20.70;72.50;;;;;;4972107;28;1157;-75
2021/09/02 02:39:55;;;;;;;;;;;20.70;72.50;;;;;;4975311;28;1906;-77
2021/09/02 02:42:21;;;;;;;;;;;20.70;72.50;;;;;;4964668;28;1164;-77
2021/09/02 02:44:46;;;;;;;;;;;20.70;72.50;;;;;;4979157;28;1228;-78
2021/09/02 02:47:12;;;;;;;;;;;20.70;72.50;;;;;;4966612;28;1316;-78
2021/09/02 02:49:37;;;;;;;;;;;20.70;72.50;;;;;;4955348;28;1261;-78
2021/09/02 02:52:03;;;;;;;;;;;20.70;72.50;;;;;;4968756;28;1172;-79
2021/09/02 02:54:28;;;;;;;;;;;20.70;72.50;;;;;;4969709;28;1234;-77
2021/09/02 02:56:54;;;;;;;;;;;20.70;72.50;;;;;;4986714;28;1097;-78
2021/09/02 02:59:19;;;;;;;;;;;20.70;72.60;;;;;;4990882;28;1907;-76
2021/09/02 03:01:45;;;;;;;;;;;20.70;72.50;;;;;;4992460;28;1296;-78
2021/09/02 03:04:10;;;;;;;;;;;20.70;72.50;;;;;;4997505;28;1320;-76
2021/09/02 03:06:36;;;;;;;;;;;20.70;72.50;;;;;;4964998;28;1165;-75
2021/09/02 03:09:02;;;;;;;;;;;20.70;72.50;;;;;;4983653;28;1140;-75
2021/09/02 03:11:28;;;;;;;;;;;20.70;72.50;;;;;;4995867;28;1282;-75
2021/09/02 03:13:53;;;;;;;;;;;20.70;72.60;;;;;;4978608;28;1244;-75
2021/09/02 03:16:19;;;;;;;;;;;20.70;72.50;;;;;;4965110;28;1274;-76
2021/09/02 03:18:44;;;;;;;;;;;20.70;72.50;;;;;;4966498;28;1132;-75
2021/09/02 03:21:10;;;;;;;;;;;20.70;72.50;;;;;;4998164;28;1898;-77
2021/09/02 03:23:35;;;;;;;;;;;20.70;72.50;;;;;;4982399;28;1236;-77
2021/09/02 03:26:00;;;;;;;;;;;20.70;72.50;;;;;;4969823;28;1200;-74
2021/09/02 03:28:26;;;;;;;;;;;20.70;72.50;;;;;;4987232;28;1314;-74
2021/09/02 03:30:51;;;;;;;;;;;20.70;72.50;;;;;;4987433;28;1221;-74
2021/09/02 03:33:17;;;;;;;;;;;20.70;72.50;;;;;;4969617;28;1416;-75
2021/09/02 03:35:42;;;;;;;;;;;20.70;72.50;;;;;;4992421;28;1225;-76
2021/09/02 03:38:08;;;;;;;;;;;20.70;72.50;;;;;;4989602;28;1404;-77
2021/09/02 03:40:33;;;;;;;;;;;20.70;72.50;;;;;;4958440;28;1961;-75
2021/09/02 03:42:59;;;;;;;;;;;20.70;72.50;;;;;;4958595;28;1385;-76
2021/09/02 03:45:24;;;;;;;;;;;20.70;72.70;;;;;;4975904;28;1350;-76
2021/09/02 03:47:49;;;;;;;;;;;20.60;72.40;;;;;;4981594;28;1426;-75
2021/09/02 03:50:15;;;;;;;;;;;20.70;72.50;;;;;;4995277;28;1249;-75
2021/09/02 03:52:41;;;;;;;;;;;20.70;72.50;;;;;;4977761;28;1444;-76
2021/09/02 03:55:06;;;;;;;;;;;20.70;72.50;;;;;;4999554;28;1419;-76
2021/09/02 03:57:32;;;;;;;;;;;20.60;72.40;;;;;;4989876;28;1277;-76
2021/09/02 03:59:57;;;;;;;;;;;20.70;72.50;;;;;;4970953;28;1906;-76
2021/09/02 04:02:23;;;;;;;;;;;20.60;72.40;;;;;;4988268;28;1140;-76
2021/09/02 04:04:48;;;;;;;;;;;20.70;72.50;;;;;;4987533;28;1303;-76
2021/09/02 04:07:13;;;;;;;;;;;20.70;72.50;;;;;;4971573;28;1452;-77
2021/09/02 04:09:39;;;;;;;;;;;20.70;72.40;;;;;;4957894;28;1395;-77
2021/09/02 04:12:04;;;;;;;;;;;20.70;72.50;;;;;;4989074;28;1200;-77
2021/09/02 04:14:30;;;;;;;;;;;20.70;73.20;;;;;;4987549;28;1240;-77
2021/09/02 04:16:55;;;;;;;;;;;20.70;72.50;;;;;;4964564;28;1188;-77
2021/09/02 04:19:22;;;;;;;;;;;20.70;72.50;;;;;;4966836;28;1914;-77
2021/09/02 04:21:47;;;;;;;;;;;20.60;72.40;;;;;;4979260;28;1203;-74
2021/09/02 04:24:13;;;;;;;;;;;20.70;72.40;;;;;;4993326;28;1888;-76
2021/09/02 04:26:38;;;;;;;;;;;20.60;72.40;;;;;;4991487;28;2528;-76
2021/09/02 04:29:04;;;;;;;;;;;20.70;72.50;;;;;;4976930;28;1180;-74
2021/09/02 04:31:29;;;;;;;;;;;20.70;72.50;;;;;;4976855;28;1117;-76
2021/09/02 04:33:54;;;;;;;;;;;20.70;72.50;;;;;;4976782;28;1248;-77
2021/09/02 04:36:20;;;;;;;;;;;20.70;72.50;;;;;;4981493;28;1116;-76
2021/09/02 04:38:45;;;;;;;;;;;20.60;72.40;;;;;;4965587;28;1451;-77
2021/09/02 04:41:11;;;;;;;;;;;20.70;72.50;;;;;;4988091;28;1906;-74
2021/09/02 04:43:36;;;;;;;;;;;20.70;72.40;;;;;;4985288;28;1278;-75
2021/09/02 04:46:01;;;;;;;;;;;20.70;72.80;;;;;;4981213;28;1062;-77
2021/09/02 04:48:27;;;;;;;;;;;20.60;72.40;;;;;;4950218;28;1183;-75
2021/09/02 04:50:52;;;;;;;;;;;20.60;72.40;;;;;;4975056;28;1387;-75
2021/09/02 04:53:18;;;;;;;;;;;20.60;72.40;;;;;;4982563;28;1346;-75
2021/09/02 04:55:43;;;;;;;;;;;20.70;72.40;;;;;;4979747;28;1129;-76
2021/09/02 04:58:09;;;;;;;;;;;20.60;72.40;;;;;;4983020;28;1060;-76
2021/09/02 05:00:35;;;;;;;;;;;20.60;72.40;;;;;;4987486;28;1959;-78
2021/09/02 05:03:00;;;;;;;;;;;20.60;72.40;;;;;;4985500;28;1253;-79
2021/09/02 05:05:25;;;;;;;;;;;20.60;72.40;;;;;;4963355;28;1176;-78
2021/09/02 05:07:51;;;;;;;;;;;20.60;72.40;;;;;;4982974;28;1073;-78
2021/09/02 05:10:16;;;;;;;;;;;20.60;72.40;;;;;;4987036;28;1085;-78
2021/09/02 05:12:42;;;;;;;;;;;20.60;72.40;;;;;;4967451;28;1366;-78
2021/09/02 05:15:07;;;;;;;;;;;20.60;72.40;;;;;;4980276;28;1065;-78
2021/09/02 05:17:33;;;;;;;;;;;20.60;72.40;;;;;;4966410;28;1053;-78
2021/09/02 05:19:58;;;;;;;;;;;20.60;72.40;;;;;;4960801;28;1952;-76
2021/09/02 05:22:23;;;;;;;;;;;20.60;72.40;;;;;;4983248;28;1085;-76
2021/09/02 05:24:49;;;;;;;;;;;20.60;73.10;;;;;;4973703;28;1348;-75
2021/09/02 05:27:14;;;;;;;;;;;20.60;72.40;;;;;;5003138;28;1045;-76
2021/09/02 05:29:40;;;;;;;;;;;20.60;72.40;;;;;;4978437;28;1441;-74
2021/09/02 05:32:05;;;;;;;;;;;20.60;72.40;;;;;;4966036;28;1198;-75
2021/09/02 05:34:31;;;;;;;;;;;20.60;72.40;;;;;;4982304;28;1433;-74
2021/09/02 05:36:56;;;;;;;;;;;20.60;72.40;;;;;;4965083;28;1224;-75
2021/09/02 05:39:22;;;;;;;;;;;20.60;72.40;;;;;;4980753;28;1963;-75
2021/09/02 05:41:48;;;;;;;;;;;20.60;72.40;;;;;;4983122;28;1316;-76
2021/09/02 05:44:14;;;;;;;;;;;20.60;72.40;;;;;;4966651;28;1412;-74
2021/09/02 05:46:39;;;;;;;;;;;20.60;72.40;;;;;;4965943;28;1232;-74
2021/09/02 05:49:05;;;;;;;;;;;20.60;72.30;;;;;;4952795;28;1320;-75
2021/09/02 05:51:30;;;;;;;;;;;20.60;72.30;;;;;;4964780;28;1284;-74
2021/09/02 05:53:56;;;;;;;;;;;20.60;72.30;;;;;;4983653;28;1378;-75
2021/09/02 05:56:21;;;;;;;;;;;20.60;72.30;;;;;;4970725;28;1305;-75
2021/09/02 05:58:46;;;;;;;;;;;20.60;72.30;;;;;;4979569;28;1289;-75
2021/09/02 06:01:14;;;;;;;;;;;20.60;72.30;;;;;;4982689;28;1942;-76
2021/09/02 06:03:39;;;;;;;;;;;20.60;72.30;;;;;;4964353;28;1348;-75
2021/09/02 06:06:05;;;;;;;;;;;20.60;72.40;;;;;;4983780;28;1129;-75
2021/09/02 06:08:30;;;;;;;;;;;20.60;72.30;;;;;;4979875;28;1202;-74
2021/09/02 06:10:55;;;;;;;;;;;20.60;72.30;;;;;;4983496;28;1177;-74
2021/09/02 06:13:21;;;;;;;;;;;20.60;72.40;;;;;;4967639;28;1326;-76
2021/09/02 06:15:46;;;;;;;;;;;20.70;72.50;;;;;;4983548;28;1435;-75
2021/09/02 06:18:12;;;;;;;;;;;20.60;72.40;;;;;;4968366;28;1273;-74
2021/09/02 06:20:37;;;;;;;;;;;20.70;72.50;;;;;;4983110;28;1958;-75
2021/09/02 06:23:04;;;;;;;;;;;20.60;72.50;;;;;;4985055;28;1328;-75
2021/09/02 06:25:29;;;;;;;;;;;20.70;72.50;;;;;;4987854;28;1308;-75
2021/09/02 06:27:55;;;;;;;;;;;20.70;72.50;;;;;;4986199;28;1154;-76
2021/09/02 06:30:20;;;;;;;;;;;20.70;72.60;;;;;;4969043;28;1230;-75
2021/09/02 06:32:46;;;;;;;;;;;20.60;72.50;;;;;;4988203;28;1335;-75
2021/09/02 06:35:11;;;;;;;;;;;20.60;72.60;;;;;;4984689;28;1390;-74
2021/09/02 06:37:36;;;;;;;;;;;20.70;72.60;;;;;;4988601;28;1177;-75
2021/09/02 06:40:02;;;;;;;;;;;20.70;72.60;;;;;;4986485;28;1906;-75
2021/09/02 06:42:28;;;;;;;;;;;20.70;72.60;;;;;;4964343;28;1285;-75
2021/09/02 06:44:53;;;;;;;;;;;20.60;72.60;;;;;;4984805;28;1136;-74
2021/09/02 06:47:18;;;;;;;;;;;20.60;72.60;;;;;;4981750;28;1057;-75
2021/09/02 06:49:44;;;;;;;;;;;20.70;72.70;;;;;;4968172;28;1176;-74
2021/09/02 06:52:09;;;;;;;;;;;20.70;72.70;;;;;;4994165;28;1135;-75
2021/09/02 06:54:35;;;;;;;;;;;20.70;72.70;;;;;;4985444;28;1190;-75
2021/09/02 06:57:00;;;;;;;;;;;20.70;72.70;;;;;;4999143;28;1301;-74
2021/09/02 06:59:25;;;;;;;;;;;20.70;72.70;;;;;;4985087;28;1973;-75
2021/09/02 07:01:51;;;;;;;;;;;20.70;72.70;;;;;;4981187;28;970;-75
2021/09/02 07:04:16;;;;;;;;;;;20.60;72.70;;;;;;4967421;28;1244;-75
2021/09/02 07:06:42;;;;;;;;;;;20.70;72.70;;;;;;4981132;28;1140;-74
2021/09/02 07:09:07;;;;;;;;;;;20.70;72.70;;;;;;4967317;28;1121;-75
2021/09/02 07:11:33;;;;;;;;;;;20.70;72.80;;;;;;4982859;28;1095;-75
2021/09/02 07:13:58;;;;;;;;;;;20.60;72.70;;;;;;4995825;28;1314;-75
2021/09/02 07:16:24;;;;;;;;;;;20.70;72.80;;;;;;4982710;28;1360;-74
2021/09/02 07:18:49;;;;;;;;;;;20.60;72.70;;;;;;4972409;28;1552;-74
2021/09/02 07:21:14;;;;;;;;;;;20.70;72.80;;;;;;4986666;28;1903;-75
2021/09/02 07:23:40;;;;;;;;;;;20.70;72.80;;;;;;4968194;28;1366;-75
2021/09/02 07:26:05;;;;;;;;;;;20.70;72.80;;;;;;4985973;28;1751;-76
2021/09/02 07:28:31;;;;;;;;;;;20.70;72.80;;;;;;4975887;28;1850;-75
2021/09/02 07:30:56;;;;;;;;;;;20.70;72.90;;;;;;4989871;28;1304;-75
2021/09/02 07:33:22;;;;;;;;;;;20.70;72.90;;;;;;4988803;28;1376;-76
2021/09/02 07:35:47;;;;;;;;;;;20.70;72.90;;;;;;4989437;28;1229;-76
2021/09/02 07:38:13;;;;;;;;;;;20.70;72.90;;;;;;4985735;28;1197;-76
2021/09/02 07:40:38;;;;;;;;;;;20.70;73.00;;;;;;4988741;28;1969;-75
2021/09/02 07:43:03;;;;;;;;;;;20.70;73.00;;;;;;4992192;28;1858;-75
2021/09/02 07:45:29;;;;;;;;;;;20.70;73.00;;;;;;4992272;28;1204;-74
2021/09/02 07:47:54;;;;;;;;;;;20.70;73.00;;;;;;4994987;28;1301;-74
2021/09/02 07:50:20;;;;;;;;;;;20.70;73.00;;;;;;4977673;28;1215;-75
2021/09/02 07:52:45;;;;;;;;;;;20.70;73.00;;;;;;4984446;28;1934;-77
2021/09/02 07:55:11;;;;;;;;;;;20.70;73.00;;;;;;4992416;28;1885;-75
2021/09/02 07:57:37;;;;;;;;;;;20.70;73.10;;;;;;4973741;28;2075;-75
2021/09/02 08:00:03;;;;;;;;;;;20.70;73.20;;;;;;4986375;28;2156;-74
2021/09/02 08:02:28;;;;;;;;;;;20.70;73.40;;;;;;4975091;28;1297;-75
2021/09/02 08:04:53;;;;;;;;;;;20.70;73.70;;;;;;4985281;28;2198;-75
2021/09/02 08:07:19;;;;;;;;;;;20.80;73.50;;;;;;4994643;28;1092;-74
2021/09/02 08:09:46;;;;;;;;;;;20.80;73.20;;;;;;4994858;28;1164;-75
2021/09/02 08:12:12;;;;;;;;;;;20.80;73.20;;;;;;4981874;28;999;-74
2021/09/02 08:14:37;;;;;;;;;;;20.80;73.10;;;;;;4994436;28;1260;-75
2021/09/02 08:17:03;;;;;;;;;;;20.70;73.10;;;;;;4994646;28;1259;-74
2021/09/02 08:19:29;;;;;;;;;;;20.80;73.20;;;;;;4994714;28;1902;-75
2021/09/02 08:21:54;;;;;;;;;;;20.80;73.20;;;;;;4994461;28;1132;-75
2021/09/02 08:24:20;;;;;;;;;;;20.70;73.10;;;;;;4994881;28;1352;-74
2021/09/02 08:26:45;;;;;;;;;;;20.70;73.10;;;;;;5004758;28;1254;-74
2021/09/02 08:29:11;;;;;;;;;;;20.70;73.10;;;;;;4981856;28;1069;-77
2021/09/02 08:31:36;;;;;;;;;;;20.70;73.10;;;;;;4976922;28;1197;-76
2021/09/02 08:34:01;;;;;;;;;;;20.70;73.10;;;;;;4994263;28;1268;-76
2021/09/02 08:36:27;;;;;;;;;;;20.70;73.10;;;;;;4981243;28;1069;-76
2021/09/02 08:38:52;;;;;;;;;;;20.70;73.10;;;;;;4994353;28;1252;-76
2021/09/02 08:41:18;;;;;;;;;;;20.70;73.10;;;;;;4958031;28;1907;-76
2021/09/02 08:43:43;;;;;;;;;;;20.70;73.10;;;;;;4969480;28;1212;-76
2021/09/02 08:46:09;;;;;;;;;;;20.70;73.10;;;;;;4947850;28;1184;-75
2021/09/02 08:48:37;;;;;;;;;;;20.70;73.10;;;;;;4964147;28;1168;-73
2021/09/02 08:51:03;;;;;;;;;;;20.70;73.10;;;;;;5006639;28;1327;-74
2021/09/02 08:53:28;;;;;;;;;;;20.70;73.20;;;;;;4976410;28;1401;-74
2021/09/02 08:55:54;;;;;;;;;;;20.70;73.20;;;;;;4982167;28;1346;-74
2021/09/02 08:58:19;;;;;;;;;;;20.70;73.20;;;;;;4994115;28;1056;-74
2021/09/02 09:00:45;;;;;;;;;;;20.70;73.20;;;;;;4980926;28;1911;-74
2021/09/02 09:03:10;;;;;;;;;;;20.70;73.10;;;;;;4981804;28;1341;-75
2021/09/02 09:05:35;;;;;;;;;;;20.70;73.20;;;;;;4992460;28;1133;-75
2021/09/02 09:08:07;;;;;;;;;;;20.70;73.10;;;;;;4987588;28;1756;-75
2021/09/02 09:10:33;;;;;;;;;;;20.70;73.10;;;;;;4987753;28;1743;-76
2021/09/02 09:12:59;;;;;;;;;;;20.70;73.10;;;;;;4972857;28;1703;-74
2021/09/02 09:15:28;;;;;;;;;;;20.70;73.10;;;;;;4975969;28;1352;-73
2021/09/02 09:17:54;;;;;;;;;;;20.70;73.90;;;;;;4993427;28;1147;-73
2021/09/02 09:20:22;;;;;;;;;;;20.70;74.30;;;;;;4953644;28;1965;-74
2021/09/02 09:22:49;;;;;;;;;;;20.70;75.10;;;;;;4969951;28;1387;-75
2021/09/02 09:25:14;;;;;;;;;;;20.70;75.00;;;;;;4980823;28;1160;-75
2021/09/02 09:27:42;;;;;;;;;;;20.70;75.30;;;;;;4980802;28;1037;-73
2021/09/02 09:30:18;;;;;;;;;;;20.80;76.40;;;;;;4969178;28;1088;-75
2021/09/02 09:32:45;;;;;;;;;;;20.80;76.00;;;;;;4986804;28;1281;-75
2021/09/02 09:35:20;;;;;;;;;;;20.90;75.90;;;;;;4982983;28;1081;-75
2021/09/02 09:37:46;;;;;;;;;;;20.90;76.10;;;;;;4963386;28;1069;-74
2021/09/02 09:40:22;;;;;;;;;;;20.90;76.30;;;;;;4982961;28;1914;-74
2021/09/02 09:43:19;;;;;;;;;;;20.90;76.90;;;;;;4969669;28;1277;-75
2021/09/02 09:45:51;;;;;;;;;;;21.00;77.20;;;;;;4964462;28;1307;-76
2021/09/02 09:48:17;;;;;;;;;;;21.00;75.40;;;;;;4984339;28;1069;-75
2021/09/02 09:50:42;;;;;;;;;;;21.00;77.50;;;;;;4993172;28;1211;-74
2021/09/02 09:53:23;;;;;;;;;;;21.10;77.90;;;;;;4983395;28;1364;-74
2021/09/02 09:55:50;;;;;;;;;;;21.10;76.90;;;;;;4980049;28;1192;-73
2021/09/02 09:58:15;;;;;;;;;;;21.10;76.40;;;;;;4981321;28;1069;-73
2021/09/02 10:00:41;;;;;;;;;;;21.10;76.10;;;;;;4978503;28;1883;-73
2021/09/02 10:03:06;;;;;;;;;;;21.10;76.70;;;;;;4967695;28;1304;-74
2021/09/02 10:05:32;;;;;;;;;;;21.10;77.40;;;;;;4960491;28;1535;-74
2021/09/02 10:07:57;;;;;;;;;;;21.10;77.30;;;;;;4960296;28;1464;-74
2021/09/02 10:10:22;;;;;;;;;;;21.10;76.10;;;;;;4964868;28;1406;-74
2021/09/02 10:12:48;;;;;;;;;;;21.10;75.90;;;;;;4968749;28;1294;-74
2021/09/02 10:15:17;;;;;;;;;;;21.10;75.80;;;;;;4976959;28;1073;-74
2021/09/02 10:17:42;;;;;;;;;;;21.10;76.10;;;;;;4985756;28;1421;-74
2021/09/02 10:20:17;;;;;;;;;;;21.10;76.10;;;;;;4990508;28;1961;-74
2021/09/02 10:22:43;;;;;;;;;;;21.10;76.40;;;;;;4972306;28;1308;-74
2021/09/02 10:25:28;;;;;;;;;;;21.10;76.60;;;;;;4971143;28;1346;-74
2021/09/02 10:28:00;;;;;;;;;;;21.10;77.10;;;;;;5001302;28;1131;-73
2021/09/02 10:30:26;;;;;;;;;;;21.10;78.20;;;;;;4987199;28;1171;-75
2021/09/02 10:32:52;;;;;;;;;;;21.10;77.50;;;;;;4990242;28;1355;-74
2021/09/02 10:35:17;;;;;;;;;;;21.10;77.20;;;;;;4986496;28;1172;-74
2021/09/02 10:37:43;;;;;;;;;;;21.20;78.50;;;;;;4996658;28;1428;-74
2021/09/02 10:40:15;;;;;;;;;;;21.20;78.80;;;;;;4969850;28;1907;-74
2021/09/02 10:42:43;;;;;;;;;;;21.20;79.20;;;;;;4993656;28;1261;-73
2021/09/02 10:45:38;;;;;;;;;;;21.20;79.00;;;;;;4978906;28;1207;-74
2021/09/02 10:48:06;;;;;;;;;;;21.20;79.10;;;;;;4976276;28;1258;-74
2021/09/02 10:50:40;;;;;;;;;;;21.20;78.70;;;;;;5009540;28;1349;-76
2021/09/02 10:53:10;;;;;;;;;;;21.20;79.40;;;;;;4969097;28;1255;-75
2021/09/02 10:55:36;;;;;;;;;;;21.20;79.60;;;;;;4998798;28;1133;-75
2021/09/02 10:58:05;;;;;;;;;;;21.20;79.40;;;;;;4968528;28;1506;-74
2021/09/02 11:00:40;;;;;;;;;;;21.10;79.50;;;;;;4972421;28;1902;-75
2021/09/02 11:03:15;;;;;;;;;;;21.10;79.70;;;;;;4988042;28;1321;-74
2021/09/02 11:05:42;;;;;;;;;;;21.20;78.80;;;;;;4978582;28;1492;-75
2021/09/02 11:08:08;;;;;;;;;;;21.30;78.80;;;;;;4996087;28;1319;-72
2021/09/02 11:10:33;;;;;;;;;;;21.40;78.40;;;;;;4971283;28;1065;-75
2021/09/02 11:13:03;;;;;;;;;;;21.50;78.40;;;;;;4955933;28;1256;-75
2021/09/02 11:15:28;;;;;;;;;;;21.60;77.50;;;;;;4978677;28;1159;-75
2021/09/02 11:17:54;;;;;;;;;;;21.70;77.00;;;;;;4982792;28;1096;-74
2021/09/02 11:20:21;;;;;;;;;;;21.80;76.80;;;;;;4955586;28;1903;-75
2021/09/02 11:22:47;;;;;;;;;;;21.80;76.50;;;;;;4989201;28;1354;-75
2021/09/02 11:25:13;;;;;;;;;;;21.90;76.40;;;;;;4970717;28;1046;-75
2021/09/02 11:27:38;;;;;;;;;;;22.00;75.60;;;;;;4984289;28;1159;-75
2021/09/02 11:30:13;;;;;;;;;;;22.00;75.30;;;;;;4982798;28;1177;-75
2021/09/02 11:32:39;;;;;;;;;;;22.00;75.00;;;;;;4964943;28;1278;-74
2021/09/02 11:35:05;;;;;;;;;;;22.00;75.20;;;;;;4972894;28;1578;-75
2021/09/02 11:37:39;;;;;;;;;;;21.90;75.10;;;;;;4987120;28;1197;-73
2021/09/02 11:40:05;;;;;;;;;;;21.90;75.00;;;;;;4967310;28;1934;-73
2021/09/02 11:42:31;;;;;;;;;;;21.80;75.20;;;;;;4984811;28;1285;-75
2021/09/02 11:44:56;;;;;;;;;;;21.80;75.10;;;;;;4954030;28;1535;-75
2021/09/02 11:47:22;;;;;;;;;;;21.80;75.00;;;;;;4969517;28;1377;-73
2021/09/02 11:49:51;;;;;;;;;;;21.80;74.90;;;;;;4975057;28;1225;-75
2021/09/02 11:52:17;;;;;;;;;;;21.80;74.50;;;;;;4953357;28;1382;-75
2021/09/02 11:54:42;;;;;;;;;;;21.80;74.50;;;;;;4988080;28;1336;-73
2021/09/02 11:57:08;;;;;;;;;;;21.70;74.60;;;;;;4987628;28;1249;-73
2021/09/02 11:59:34;;;;;;;;;;;21.70;74.70;;;;;;4987776;28;1281;-73
2021/09/02 12:01:59;;;;;;;;;;;21.70;75.10;;;;;;4976771;28;1910;-78
2021/09/02 12:04:26;;;;;;;;;;;21.70;75.10;;;;;;4956458;28;1228;-77
2021/09/02 12:06:58;;;;;;;;;;;21.60;75.20;;;;;;4979219;28;1454;-73
2021/09/02 12:09:25;;;;;;;;;;;21.60;75.10;;;;;;4967108;28;1258;-75
2021/09/02 12:11:50;;;;;;;;;;;21.50;75.10;;;;;;4971371;28;1145;-74
2021/09/02 12:14:22;;;;;;;;;;;21.50;75.70;;;;;;4967918;28;1310;-73
2021/09/02 12:17:08;;;;;;;;;;;21.40;75.70;;;;;;4964474;28;1220;-73
2021/09/02 12:19:52;;;;;;;;;;;21.40;75.40;;;;;;4981663;28;955;-74
2021/09/02 12:22:18;;;;;;;;;;;21.40;76.40;;;;;;4984365;28;1134;-70
2021/09/02 12:24:43;;;;;;;;;;;21.30;75.60;;;;;;4972261;28;1343;-71
2021/09/02 12:27:09;;;;;;;;;;;21.30;75.90;;;;;;4970765;28;1287;-74
2021/09/02 12:29:44;;;;;;;;;;;21.30;76.20;;;;;;4967178;28;1257;-74
2021/09/02 12:32:12;;;;;;;;;;;21.20;75.60;;;;;;4968309;28;1226;-74
2021/09/02 12:34:40;;;;;;;;;;;21.20;75.50;;;;;;4968334;28;1358;-74
2021/09/02 12:37:06;;;;;;;;;;;21.20;75.40;;;;;;4968310;28;1206;-74
2021/09/02 12:39:32;;;;;;;;;;;21.20;75.40;;;;;;4982364;28;1241;-74
2021/09/02 12:41:58;;;;;;;;;;;21.10;75.10;;;;;;4971282;28;1961;-73
2021/09/02 12:44:23;;;;;;;;;;;21.10;74.50;;;;;;4974733;28;1352;-73
2021/09/02 12:46:53;;;;;;;;;;;21.10;74.80;;;;;;4984815;28;1209;-72
2021/09/02 12:49:19;;;;;;;;;;;21.10;75.00;;;;;;4952625;28;1417;-73
2021/09/02 12:52:14;;;;;;;;;;;21.10;74.50;;;;;;4968311;28;1338;-74
2021/09/02 12:54:58;;;;;;;;;;;21.10;75.40;;;;;;4978869;28;1671;-75
2021/09/02 12:57:23;;;;;;;;;;;21.10;75.70;;;;;;4992116;28;1271;-76
2021/09/02 12:59:49;;;;;;;;;;;21.10;74.90;;;;;;4952836;28;1891;-75
2021/09/02 13:02:14;;;;;;;;;;;21.10;75.40;;;;;;4984970;28;1347;-75
2021/09/02 13:04:40;;;;;;;;;;;21.10;74.80;;;;;;4984643;28;1225;-76
2021/09/02 13:07:05;;;;;;;;;;;21.10;75.50;;;;;;4987671;28;1327;-75
2021/09/02 13:09:30;;;;;;;;;;;21.10;75.00;;;;;;4982828;28;1138;-75
2021/09/02 13:11:56;;;;;;;;;;;21.10;75.40;;;;;;4986462;28;1156;-75
2021/09/02 13:14:21;;;;;;;;;;;21.10;75.10;;;;;;4982940;28;1296;-76
2021/09/02 13:16:47;;;;;;;;;;;21.10;74.40;;;;;;4991233;28;1113;-73
2021/09/02 13:19:12;;;;;;;;;;;21.00;74.00;;;;;;4986814;28;1281;-75
2021/09/02 13:21:38;;;;;;;;;;;21.00;74.80;;;;;;4992066;28;1887;-75
2021/09/02 13:24:03;;;;;;;;;;;21.00;75.20;;;;;;4970213;28;1302;-75
2021/09/02 13:26:28;;;;;;;;;;;21.00;74.70;;;;;;4988897;28;1209;-74
2021/09/02 13:28:54;;;;;;;;;;;21.00;74.90;;;;;;4968748;28;1531;-74
2021/09/02 13:31:19;;;;;;;;;;;21.10;75.10;;;;;;4988861;28;1117;-74
2021/09/02 13:33:45;;;;;;;;;;;21.10;75.00;;;;;;4968793;28;1451;-74
2021/09/02 13:36:10;;;;;;;;;;;21.10;75.30;;;;;;4978736;28;1105;-74
2021/09/02 13:38:38;;;;;;;;;;;21.10;75.50;;;;;;4986647;28;1160;-75
2021/09/02 13:41:03;;;;;;;;;;;21.20;75.70;;;;;;4974388;28;1895;-74
2021/09/02 13:43:29;;;;;;;;;;;21.20;76.10;;;;;;4957428;28;1342;-75
2021/09/02 13:45:54;;;;;;;;;;;21.20;76.20;;;;;;4942569;28;1334;-74
2021/09/02 13:48:19;;;;;;;;;;;21.20;76.60;;;;;;4974478;28;1371;-74
2021/09/02 13:50:46;;;;;;;;;;;21.30;77.30;;;;;;4992259;28;1195;-73
2021/09/02 13:53:11;;;;;;;;;;;21.30;78.10;;;;;;4972314;28;1329;-75
2021/09/02 13:55:37;;;;;;;;;;;21.40;78.80;;;;;;4968657;28;1186;-76
2021/09/02 13:58:02;;;;;;;;;;;21.40;78.60;;;;;;4980317;28;1250;-74
2021/09/02 14:00:28;;;;;;;;;;;21.40;78.90;;;;;;4962693;28;1907;-75
2021/09/02 14:02:53;;;;;;;;;;;21.40;79.20;;;;;;4975884;28;1415;-75
2021/09/02 14:05:19;;;;;;;;;;;21.40;78.50;;;;;;4989415;28;1058;-74
2021/09/02 14:07:44;;;;;;;;;;;21.40;77.90;;;;;;4956371;28;1260;-74
2021/09/02 14:10:10;;;;;;;;;;;21.40;78.40;;;;;;4986823;28;1120;-74
2021/09/02 14:12:35;;;;;;;;;;;21.40;78.40;;;;;;4983445;28;1272;-73
2021/09/02 14:15:00;;;;;;;;;;;21.40;77.90;;;;;;4991640;28;2202;-74
2021/09/02 14:17:26;;;;;;;;;;;21.30;77.90;;;;;;4992934;28;1707;-74
2021/09/02 14:19:51;;;;;;;;;;;21.30;78.90;;;;;;4975751;28;1953;-74
2021/09/02 14:22:17;;;;;;;;;;;21.40;81.20;;;;;;4992685;28;1148;-73
2021/09/02 14:24:43;;;;;;;;;;;21.40;81.50;;;;;;4977085;28;1300;-74
2021/09/02 14:27:09;;;;;;;;;;;21.50;82.40;;;;;;5003398;28;1128;-74